sensor_id;sensor_type;location;lat;lon;timestamp;pressure;altitude;pressure_sealevel;temperature;humidity
69528;BME280;57136;51.986;4.468;2023-02-01T00:00:21;102129.75;;;6.84;89.31
69528;BME280;57136;51.986;4.468;2023-02-01T00:02:49;102138.25;;;6.80;89.28
69528;BME280;57136;51.986;4.468;2023-02-01T00:05:15;102140.22;;;6.86;89.25
69528;BME280;57136;51.986;4.468;2023-02-01T00:07:40;102146.84;;;6.79;89.38
69528;BME280;57136;51.986;4.468;2023-02-01T00:10:07;102133.63;;;6.73;89.57
69528;BME280;57136;51.986;4.468;2023-02-01T00:12:33;102146.47;;;6.70;89.45
69528;BME280;57136;51.986;4.468;2023-02-01T00:14:58;102151.91;;;6.76;89.20
69528;BME280;57136;51.986;4.468;2023-02-01T00:17:24;102142.16;;;6.70;89.12
69528;BME280;57136;51.986;4.468;2023-02-01T00:19:49;102134.47;;;6.72;88.58
69528;BME280;57136;51.986;4.468;2023-02-01T00:22:15;102142.97;;;6.69;88.81
69528;BME280;57136;51.986;4.468;2023-02-01T00:24:40;102153.00;;;6.81;88.37
69528;BME280;57136;51.986;4.468;2023-02-01T00:27:05;102152.59;;;6.72;88.27
69528;BME280;57136;51.986;4.468;2023-02-01T00:29:31;102146.72;;;6.76;87.41
69528;BME280;57136;51.986;4.468;2023-02-01T00:31:56;102146.09;;;6.82;87.34
69528;BME280;57136;51.986;4.468;2023-02-01T00:34:22;102139.25;;;6.63;87.87
69528;BME280;57136;51.986;4.468;2023-02-01T00:36:47;102135.47;;;6.75;86.91
69528;BME280;57136;51.986;4.468;2023-02-01T00:39:13;102132.44;;;6.65;87.34
69528;BME280;57136;51.986;4.468;2023-02-01T00:41:38;102133.56;;;6.71;86.71
69528;BME280;57136;51.986;4.468;2023-02-01T00:44:03;102131.75;;;6.69;86.93
69528;BME280;57136;51.986;4.468;2023-02-01T00:46:29;102149.31;;;6.76;87.13
69528;BME280;57136;51.986;4.468;2023-02-01T00:48:54;102129.16;;;6.69;87.00
69528;BME280;57136;51.986;4.468;2023-02-01T00:51:22;102127.63;;;6.74;87.04
69528;BME280;57136;51.986;4.468;2023-02-01T00:53:48;102125.19;;;6.77;87.49
69528;BME280;57136;51.986;4.468;2023-02-01T00:56:14;102122.00;;;6.84;87.30
69528;BME280;57136;51.986;4.468;2023-02-01T00:58:40;102118.22;;;6.76;88.49
69528;BME280;57136;51.986;4.468;2023-02-01T01:01:07;102105.97;;;6.72;89.14
69528;BME280;57136;51.986;4.468;2023-02-01T01:03:35;102114.44;;;6.68;89.80
69528;BME280;57136;51.986;4.468;2023-02-01T01:06:02;102106.00;;;6.73;89.63
69528;BME280;57136;51.986;4.468;2023-02-01T01:08:29;102108.16;;;6.84;89.65
69528;BME280;57136;51.986;4.468;2023-02-01T01:10:54;102108.59;;;6.73;89.74
69528;BME280;57136;51.986;4.468;2023-02-01T01:13:20;102118.34;;;6.79;89.79
69528;BME280;57136;51.986;4.468;2023-02-01T01:15:45;102112.16;;;6.75;89.99
69528;BME280;57136;51.986;4.468;2023-02-01T01:18:10;102118.47;;;6.82;89.98
69528;BME280;57136;51.986;4.468;2023-02-01T01:20:39;102113.66;;;6.92;90.03
69528;BME280;57136;51.986;4.468;2023-02-01T01:23:05;102113.59;;;6.90;90.84
69528;BME280;57136;51.986;4.468;2023-02-01T01:25:31;102113.84;;;6.96;90.70
69528;BME280;57136;51.986;4.468;2023-02-01T01:27:56;102115.66;;;6.99;90.69
69528;BME280;57136;51.986;4.468;2023-02-01T01:30:22;102113.72;;;6.93;91.01
69528;BME280;57136;51.986;4.468;2023-02-01T01:32:47;102111.13;;;6.93;91.29
69528;BME280;57136;51.986;4.468;2023-02-01T01:35:12;102107.66;;;6.93;91.62
69528;BME280;57136;51.986;4.468;2023-02-01T01:37:38;102110.72;;;6.82;92.48
69528;BME280;57136;51.986;4.468;2023-02-01T01:40:05;102115.88;;;6.82;92.83
69528;BME280;57136;51.986;4.468;2023-02-01T01:42:37;102114.00;;;6.78;93.61
69528;BME280;57136;51.986;4.468;2023-02-01T01:47:52;102121.78;;;6.78;93.43
69528;BME280;57136;51.986;4.468;2023-02-01T01:50:22;102117.16;;;6.71;93.85
69528;BME280;57136;51.986;4.468;2023-02-01T01:52:50;102110.06;;;6.67;93.82
69528;BME280;57136;51.986;4.468;2023-02-01T01:55:18;102103.19;;;6.67;94.39
69528;BME280;57136;51.986;4.468;2023-02-01T01:57:50;102103.13;;;6.66;95.04
69528;BME280;57136;51.986;4.468;2023-02-01T02:00:19;102105.84;;;6.69;95.52
69528;BME280;57136;51.986;4.468;2023-02-01T02:02:47;102108.28;;;6.66;95.12
69528;BME280;57136;51.986;4.468;2023-02-01T02:05:16;102097.50;;;6.76;94.94
69528;BME280;57136;51.986;4.468;2023-02-01T02:07:46;102099.97;;;6.73;95.02
69528;BME280;57136;51.986;4.468;2023-02-01T02:10:13;102095.09;;;6.81;94.96
69528;BME280;57136;51.986;4.468;2023-02-01T02:12:43;102093.25;;;6.78;94.85
69528;BME280;57136;51.986;4.468;2023-02-01T02:15:11;102095.63;;;6.95;94.05
69528;BME280;57136;51.986;4.468;2023-02-01T02:18:01;102078.75;;;6.83;94.52
69528;BME280;57136;51.986;4.468;2023-02-01T02:20:50;102087.97;;;6.75;94.79
69528;BME280;57136;51.986;4.468;2023-02-01T02:29:14;102072.31;;;6.95;93.28
69528;BME280;57136;51.986;4.468;2023-02-01T02:32:03;102081.47;;;6.86;93.16
69528;BME280;57136;51.986;4.468;2023-02-01T02:42:29;102066.06;;;6.89;94.47
69528;BME280;57136;51.986;4.468;2023-02-01T02:45:29;102082.84;;;6.99;94.34
69528;BME280;57136;51.986;4.468;2023-02-01T02:48:29;102092.22;;;6.96;94.70
69528;BME280;57136;51.986;4.468;2023-02-01T02:51:13;102082.31;;;6.85;94.00
69528;BME280;57136;51.986;4.468;2023-02-01T02:56:42;102078.19;;;6.90;93.24
69528;BME280;57136;51.986;4.468;2023-02-01T02:59:27;102077.38;;;6.92;93.09
69528;BME280;57136;51.986;4.468;2023-02-01T03:02:13;102076.22;;;7.06;93.32
69528;BME280;57136;51.986;4.468;2023-02-01T03:04:58;102057.47;;;6.90;94.08
69528;BME280;57136;51.986;4.468;2023-02-01T03:10:26;102040.75;;;6.82;94.68
69528;BME280;57136;51.986;4.468;2023-02-01T03:12:53;102029.06;;;6.71;95.62
69528;BME280;57136;51.986;4.468;2023-02-01T03:15:37;102040.41;;;6.74;95.89
69528;BME280;57136;51.986;4.468;2023-02-01T03:18:10;102040.56;;;6.56;96.44
69528;BME280;57136;51.986;4.468;2023-02-01T03:20:40;102048.72;;;6.66;96.01
69528;BME280;57136;51.986;4.468;2023-02-01T03:23:09;102046.78;;;6.60;96.79
69528;BME280;57136;51.986;4.468;2023-02-01T03:25:35;102054.25;;;6.52;96.62
69528;BME280;57136;51.986;4.468;2023-02-01T03:28:04;102036.69;;;6.45;96.94
69528;BME280;57136;51.986;4.468;2023-02-01T03:30:34;102047.34;;;6.53;96.07
69528;BME280;57136;51.986;4.468;2023-02-01T03:33:03;102036.69;;;6.45;95.89
69528;BME280;57136;51.986;4.468;2023-02-01T03:41:09;102053.47;;;6.55;95.38
69528;BME280;57136;51.986;4.468;2023-02-01T03:44:30;102054.97;;;6.71;94.99
69528;BME280;57136;51.986;4.468;2023-02-01T03:46:35;102051.81;;;6.57;95.78
69528;BME280;57136;51.986;4.468;2023-02-01T03:49:06;102046.66;;;6.57;96.06
69528;BME280;57136;51.986;4.468;2023-02-01T03:51:35;102038.78;;;6.55;95.69
69528;BME280;57136;51.986;4.468;2023-02-01T03:54:03;102036.50;;;6.40;96.30
69528;BME280;57136;51.986;4.468;2023-02-01T03:56:31;102039.19;;;6.43;95.30
69528;BME280;57136;51.986;4.468;2023-02-01T03:58:57;102038.06;;;6.58;95.01
69528;BME280;57136;51.986;4.468;2023-02-01T04:01:25;102040.25;;;6.49;95.56
69528;BME280;57136;51.986;4.468;2023-02-01T04:03:51;102039.69;;;6.56;94.73
69528;BME280;57136;51.986;4.468;2023-02-01T04:06:20;102054.13;;;6.49;95.48
69528;BME280;57136;51.986;4.468;2023-02-01T04:08:46;102048.84;;;6.48;94.41
69528;BME280;57136;51.986;4.468;2023-02-01T04:11:12;102047.03;;;6.45;94.92
69528;BME280;57136;51.986;4.468;2023-02-01T04:13:37;102062.97;;;6.54;94.28
69528;BME280;57136;51.986;4.468;2023-02-01T04:16:03;102060.38;;;6.54;93.70
69528;BME280;57136;51.986;4.468;2023-02-01T04:18:28;102057.38;;;6.66;93.86
69528;BME280;57136;51.986;4.468;2023-02-01T04:20:53;102041.06;;;6.69;93.81
69528;BME280;57136;51.986;4.468;2023-02-01T04:23:19;102056.34;;;6.63;93.90
69528;BME280;57136;51.986;4.468;2023-02-01T04:25:45;102052.94;;;6.64;93.72
69528;BME280;57136;51.986;4.468;2023-02-01T04:28:11;102056.78;;;6.73;93.73
69528;BME280;57136;51.986;4.468;2023-02-01T04:30:36;102054.06;;;6.70;93.91
69528;BME280;57136;51.986;4.468;2023-02-01T04:33:01;102055.09;;;6.74;93.83
69528;BME280;57136;51.986;4.468;2023-02-01T04:35:30;102050.09;;;6.79;94.02
69528;BME280;57136;51.986;4.468;2023-02-01T04:37:55;102056.78;;;6.73;94.07
69528;BME280;57136;51.986;4.468;2023-02-01T04:40:21;102065.47;;;6.74;93.88
69528;BME280;57136;51.986;4.468;2023-02-01T04:42:46;102046.38;;;6.72;93.96
69528;BME280;57136;51.986;4.468;2023-02-01T04:45:11;102045.06;;;6.60;93.84
69528;BME280;57136;51.986;4.468;2023-02-01T04:47:37;102053.31;;;6.73;92.93
69528;BME280;57136;51.986;4.468;2023-02-01T04:50:02;102044.03;;;6.78;93.14
69528;BME280;57136;51.986;4.468;2023-02-01T04:52:28;102043.78;;;6.72;93.53
69528;BME280;57136;51.986;4.468;2023-02-01T04:54:53;102027.81;;;6.61;94.40
69528;BME280;57136;51.986;4.468;2023-02-01T04:57:22;102041.50;;;6.58;94.28
69528;BME280;57136;51.986;4.468;2023-02-01T04:59:48;102030.84;;;6.72;93.68
69528;BME280;57136;51.986;4.468;2023-02-01T05:02:13;102028.66;;;6.60;94.31
69528;BME280;57136;51.986;4.468;2023-02-01T05:04:38;102030.19;;;6.56;94.95
69528;BME280;57136;51.986;4.468;2023-02-01T05:07:03;102026.97;;;6.39;95.79
69528;BME280;57136;51.986;4.468;2023-02-01T05:09:29;102029.47;;;6.38;95.53
69528;BME280;57136;51.986;4.468;2023-02-01T05:11:54;102035.47;;;6.37;95.52
69528;BME280;57136;51.986;4.468;2023-02-01T05:14:38;102028.81;;;6.43;95.56
69528;BME280;57136;51.986;4.468;2023-02-01T05:17:03;102038.22;;;6.41;96.54
69528;BME280;57136;51.986;4.468;2023-02-01T05:19:28;102044.38;;;6.22;96.78
69528;BME280;57136;51.986;4.468;2023-02-01T05:21:54;102049.91;;;6.32;96.62
69528;BME280;57136;51.986;4.468;2023-02-01T05:24:19;102054.88;;;6.25;97.24
69528;BME280;57136;51.986;4.468;2023-02-01T05:26:46;102055.75;;;6.26;97.26
69528;BME280;57136;51.986;4.468;2023-02-01T05:29:12;102051.47;;;6.26;97.18
69528;BME280;57136;51.986;4.468;2023-02-01T05:31:39;102057.09;;;6.18;97.53
69528;BME280;57136;51.986;4.468;2023-02-01T05:34:04;102057.88;;;6.15;98.03
69528;BME280;57136;51.986;4.468;2023-02-01T05:36:30;102048.03;;;6.27;97.83
69528;BME280;57136;51.986;4.468;2023-02-01T05:38:56;102048.78;;;6.25;98.23
69528;BME280;57136;51.986;4.468;2023-02-01T05:41:21;102047.03;;;6.24;98.75
69528;BME280;57136;51.986;4.468;2023-02-01T05:43:47;102060.50;;;6.36;98.44
69528;BME280;57136;51.986;4.468;2023-02-01T05:46:12;102051.66;;;6.31;98.59
69528;BME280;57136;51.986;4.468;2023-02-01T05:48:39;102057.00;;;6.36;98.40
69528;BME280;57136;51.986;4.468;2023-02-01T05:51:04;102053.84;;;6.43;97.67
69528;BME280;57136;51.986;4.468;2023-02-01T05:53:30;102041.47;;;6.36;96.88
69528;BME280;57136;51.986;4.468;2023-02-01T05:55:55;102049.38;;;6.39;97.16
69528;BME280;57136;51.986;4.468;2023-02-01T05:58:20;102052.72;;;6.36;97.44
69528;BME280;57136;51.986;4.468;2023-02-01T06:00:46;102057.78;;;6.33;98.74
69528;BME280;57136;51.986;4.468;2023-02-01T06:03:11;102057.63;;;6.30;98.87
69528;BME280;57136;51.986;4.468;2023-02-01T06:05:36;102056.94;;;6.34;98.12
69528;BME280;57136;51.986;4.468;2023-02-01T06:08:02;102063.69;;;6.30;98.77
69528;BME280;57136;51.986;4.468;2023-02-01T06:10:27;102051.47;;;6.26;99.43
69528;BME280;57136;51.986;4.468;2023-02-01T06:12:52;102054.28;;;6.33;99.13
69528;BME280;57136;51.986;4.468;2023-02-01T06:15:18;102059.00;;;6.22;100.00
69528;BME280;57136;51.986;4.468;2023-02-01T06:17:44;102056.81;;;6.31;99.63
69528;BME280;57136;51.986;4.468;2023-02-01T06:20:12;102057.09;;;6.37;99.46
69528;BME280;57136;51.986;4.468;2023-02-01T06:22:37;102064.59;;;6.31;99.86
69528;BME280;57136;51.986;4.468;2023-02-01T06:25:04;102065.59;;;6.35;99.50
69528;BME280;57136;51.986;4.468;2023-02-01T06:27:30;102071.03;;;6.41;98.58
69528;BME280;57136;51.986;4.468;2023-02-01T06:29:55;102067.63;;;6.42;97.87
69528;BME280;57136;51.986;4.468;2023-02-01T06:32:21;102065.09;;;6.43;97.81
69528;BME280;57136;51.986;4.468;2023-02-01T06:34:48;102051.09;;;6.38;97.47
69528;BME280;57136;51.986;4.468;2023-02-01T06:37:13;102061.81;;;6.48;96.29
69528;BME280;57136;51.986;4.468;2023-02-01T06:39:39;102066.97;;;6.48;96.23
69528;BME280;57136;51.986;4.468;2023-02-01T06:42:04;102061.75;;;6.46;96.47
69528;BME280;57136;51.986;4.468;2023-02-01T06:44:29;102055.50;;;6.41;96.63
69528;BME280;57136;51.986;4.468;2023-02-01T06:46:55;102073.50;;;6.38;96.92
69528;BME280;57136;51.986;4.468;2023-02-01T06:49:21;102062.63;;;6.47;97.00
69528;BME280;57136;51.986;4.468;2023-02-01T06:51:46;102057.31;;;6.43;97.02
69528;BME280;57136;51.986;4.468;2023-02-01T06:54:11;102060.84;;;6.45;96.94
69528;BME280;57136;51.986;4.468;2023-02-01T06:56:37;102047.78;;;6.42;97.16
69528;BME280;57136;51.986;4.468;2023-02-01T06:59:05;102059.91;;;6.43;97.30
69528;BME280;57136;51.986;4.468;2023-02-01T07:01:32;102049.81;;;6.50;97.08
69528;BME280;57136;51.986;4.468;2023-02-01T07:03:57;102059.09;;;6.44;98.16
69528;BME280;57136;51.986;4.468;2023-02-01T07:06:23;102066.13;;;6.47;98.25
69528;BME280;57136;51.986;4.468;2023-02-01T07:08:49;102058.25;;;6.45;98.85
69528;BME280;57136;51.986;4.468;2023-02-01T07:11:15;102066.72;;;6.63;97.98
69528;BME280;57136;51.986;4.468;2023-02-01T07:13:41;102067.06;;;6.49;98.86
69528;BME280;57136;51.986;4.468;2023-02-01T07:16:15;102074.06;;;6.52;98.81
69528;BME280;57136;51.986;4.468;2023-02-01T07:18:41;102076.72;;;6.53;98.05
69528;BME280;57136;51.986;4.468;2023-02-01T07:21:06;102072.16;;;6.48;98.20
69528;BME280;57136;51.986;4.468;2023-02-01T07:23:32;102071.34;;;6.49;98.50
69528;BME280;57136;51.986;4.468;2023-02-01T07:26:01;102081.66;;;6.47;98.53
69528;BME280;57136;51.986;4.468;2023-02-01T07:28:28;102070.47;;;6.48;98.04
69528;BME280;57136;51.986;4.468;2023-02-01T07:30:54;102069.69;;;6.51;98.12
69528;BME280;57136;51.986;4.468;2023-02-01T07:33:20;102080.13;;;6.52;98.37
69528;BME280;57136;51.986;4.468;2023-02-01T07:35:47;102077.41;;;6.49;98.45
69528;BME280;57136;51.986;4.468;2023-02-01T07:38:13;102080.22;;;6.55;98.32
69528;BME280;57136;51.986;4.468;2023-02-01T07:40:38;102094.91;;;6.55;98.68
69528;BME280;57136;51.986;4.468;2023-02-01T07:43:04;102082.22;;;6.40;99.04
69528;BME280;57136;51.986;4.468;2023-02-01T07:45:31;102100.97;;;6.55;98.22
69528;BME280;57136;51.986;4.468;2023-02-01T07:47:56;102115.56;;;6.53;98.28
69528;BME280;57136;51.986;4.468;2023-02-01T07:50:21;102102.69;;;6.55;97.89
69528;BME280;57136;51.986;4.468;2023-02-01T07:52:47;102109.88;;;6.41;98.62
69528;BME280;57136;51.986;4.468;2023-02-01T07:55:12;102111.13;;;6.51;98.93
69528;BME280;57136;51.986;4.468;2023-02-01T07:57:37;102105.41;;;6.58;98.10
69528;BME280;57136;51.986;4.468;2023-02-01T08:00:03;102110.50;;;6.56;97.87
69528;BME280;57136;51.986;4.468;2023-02-01T08:02:47;102108.72;;;6.55;97.94
69528;BME280;57136;51.986;4.468;2023-02-01T08:05:12;102101.44;;;6.66;98.03
69528;BME280;57136;51.986;4.468;2023-02-01T08:07:37;102101.78;;;6.75;97.71
69528;BME280;57136;51.986;4.468;2023-02-01T08:10:03;102108.47;;;6.70;97.76
69528;BME280;57136;51.986;4.468;2023-02-01T08:12:30;102101.59;;;6.71;97.86
69528;BME280;57136;51.986;4.468;2023-02-01T08:14:56;102089.78;;;6.56;97.94
69528;BME280;57136;51.986;4.468;2023-02-01T08:17:21;102078.16;;;6.68;97.19
69528;BME280;57136;51.986;4.468;2023-02-01T08:19:46;102084.84;;;6.63;97.10
69528;BME280;57136;51.986;4.468;2023-02-01T08:22:12;102090.91;;;6.84;96.45
69528;BME280;57136;51.986;4.468;2023-02-01T08:24:37;102095.22;;;6.84;96.14
69528;BME280;57136;51.986;4.468;2023-02-01T08:27:05;102089.22;;;6.85;95.96
69528;BME280;57136;51.986;4.468;2023-02-01T08:29:31;102091.22;;;6.92;95.22
69528;BME280;57136;51.986;4.468;2023-02-01T08:31:56;102089.63;;;6.96;95.01
69528;BME280;57136;51.986;4.468;2023-02-01T08:34:21;102071.94;;;6.85;95.72
69528;BME280;57136;51.986;4.468;2023-02-01T08:36:47;102070.63;;;6.95;96.23
69528;BME280;57136;51.986;4.468;2023-02-01T08:39:12;102066.25;;;6.94;96.06
69528;BME280;57136;51.986;4.468;2023-02-01T08:41:38;102070.72;;;6.98;95.80
69528;BME280;57136;51.986;4.468;2023-02-01T08:44:03;102078.09;;;7.10;95.82
69528;BME280;57136;51.986;4.468;2023-02-01T08:46:29;102076.91;;;7.25;95.83
69528;BME280;57136;51.986;4.468;2023-02-01T08:48:55;102076.38;;;7.11;95.87
69528;BME280;57136;51.986;4.468;2023-02-01T08:51:21;102086.22;;;7.19;95.11
69528;BME280;57136;51.986;4.468;2023-02-01T08:53:47;102078.53;;;7.45;94.47
69528;BME280;57136;51.986;4.468;2023-02-01T08:56:14;102073.34;;;7.45;94.80
69528;BME280;57136;51.986;4.468;2023-02-01T08:58:40;102067.25;;;7.20;94.65
69528;BME280;57136;51.986;4.468;2023-02-01T09:01:07;102058.88;;;7.28;95.41
69528;BME280;57136;51.986;4.468;2023-02-01T09:03:33;102043.13;;;7.46;94.69
69528;BME280;57136;51.986;4.468;2023-02-01T09:06:07;102041.97;;;7.62;94.10
69528;BME280;57136;51.986;4.468;2023-02-01T09:08:33;102035.50;;;7.50;93.58
69528;BME280;57136;51.986;4.468;2023-02-01T09:11:04;102031.41;;;7.57;93.54
69528;BME280;57136;51.986;4.468;2023-02-01T09:13:30;102026.31;;;7.59;92.74
69528;BME280;57136;51.986;4.468;2023-02-01T09:15:56;102052.94;;;7.55;93.71
69528;BME280;57136;51.986;4.468;2023-02-01T09:18:21;102048.81;;;7.60;93.22
69528;BME280;57136;51.986;4.468;2023-02-01T09:20:47;102055.25;;;7.71;91.63
69528;BME280;57136;51.986;4.468;2023-02-01T09:23:12;102053.56;;;7.72;91.89
69528;BME280;57136;51.986;4.468;2023-02-01T09:25:38;102056.88;;;7.68;91.30
69528;BME280;57136;51.986;4.468;2023-02-01T09:28:04;102065.72;;;7.73;91.60
69528;BME280;57136;51.986;4.468;2023-02-01T09:30:31;102057.34;;;7.57;92.46
69528;BME280;57136;51.986;4.468;2023-02-01T09:32:57;102055.66;;;7.58;92.21
69528;BME280;57136;51.986;4.468;2023-02-01T09:35:22;102051.66;;;7.66;92.03
69528;BME280;57136;51.986;4.468;2023-02-01T09:37:47;102065.47;;;7.67;92.25
69528;BME280;57136;51.986;4.468;2023-02-01T09:40:15;102065.38;;;7.63;92.32
69528;BME280;57136;51.986;4.468;2023-02-01T09:45:36;102075.06;;;7.69;91.24
69528;BME280;57136;51.986;4.468;2023-02-01T09:48:14;102069.19;;;7.73;90.73
69528;BME280;57136;51.986;4.468;2023-02-01T09:50:45;102081.66;;;7.84;90.24
69528;BME280;57136;51.986;4.468;2023-02-01T09:53:32;102077.97;;;7.77;90.26
69528;BME280;57136;51.986;4.468;2023-02-01T09:56:06;102086.34;;;7.70;90.29
69528;BME280;57136;51.986;4.468;2023-02-01T09:58:38;102084.44;;;7.64;90.50
69528;BME280;57136;51.986;4.468;2023-02-01T10:01:12;102072.88;;;7.56;90.64
69528;BME280;57136;51.986;4.468;2023-02-01T10:03:38;102074.56;;;7.55;90.96
69528;BME280;57136;51.986;4.468;2023-02-01T10:09:10;102064.97;;;7.53;92.15
69528;BME280;57136;51.986;4.468;2023-02-01T10:20:27;102096.53;;;7.41;92.56
69528;BME280;57136;51.986;4.468;2023-02-01T10:25:59;102077.00;;;7.50;92.33
69528;BME280;57136;51.986;4.468;2023-02-01T10:28:34;102089.75;;;7.44;93.66
69528;BME280;57136;51.986;4.468;2023-02-01T10:31:01;102080.78;;;7.59;93.33
69528;BME280;57136;51.986;4.468;2023-02-01T10:36:08;102080.91;;;7.62;92.86
69528;BME280;57136;51.986;4.468;2023-02-01T10:38:36;102072.72;;;7.75;91.76
69528;BME280;57136;51.986;4.468;2023-02-01T10:41:12;102066.22;;;7.87;92.09
69528;BME280;57136;51.986;4.468;2023-02-01T10:43:38;102078.28;;;7.86;91.38
69528;BME280;57136;51.986;4.468;2023-02-01T10:46:04;102064.31;;;7.83;91.58
69528;BME280;57136;51.986;4.468;2023-02-01T10:48:30;102067.03;;;7.86;90.83
69528;BME280;57136;51.986;4.468;2023-02-01T10:50:59;102068.47;;;8.02;90.28
69528;BME280;57136;51.986;4.468;2023-02-01T10:53:31;102053.56;;;8.22;89.16
69528;BME280;57136;51.986;4.468;2023-02-01T10:56:06;102055.00;;;8.14;88.83
69528;BME280;57136;51.986;4.468;2023-02-01T10:58:32;102048.81;;;8.10;89.55
69528;BME280;57136;51.986;4.468;2023-02-01T11:01:01;102037.09;;;7.95;89.31
69528;BME280;57136;51.986;4.468;2023-02-01T11:03:45;102025.44;;;8.10;88.92
69528;BME280;57136;51.986;4.468;2023-02-01T11:11:53;102042.03;;;8.14;88.51
69528;BME280;57136;51.986;4.468;2023-02-01T11:14:20;102049.28;;;8.24;89.04
69528;BME280;57136;51.986;4.468;2023-02-01T11:16:54;102058.75;;;8.22;89.13
69528;BME280;57136;51.986;4.468;2023-02-01T11:19:20;102049.13;;;8.19;89.51
69528;BME280;57136;51.986;4.468;2023-02-01T11:21:51;102036.97;;;8.18;89.33
69528;BME280;57136;51.986;4.468;2023-02-01T11:26:53;102052.81;;;8.26;90.10
69528;BME280;57136;51.986;4.468;2023-02-01T11:29:21;102046.97;;;8.06;89.56
69528;BME280;57136;51.986;4.468;2023-02-01T11:31:50;102041.19;;;8.15;89.11
69528;BME280;57136;51.986;4.468;2023-02-01T11:34:22;102043.31;;;8.01;89.00
69528;BME280;57136;51.986;4.468;2023-02-01T11:36:49;102054.31;;;8.19;88.98
69528;BME280;57136;51.986;4.468;2023-02-01T11:39:26;102054.19;;;8.15;88.99
69528;BME280;57136;51.986;4.468;2023-02-01T11:41:58;102055.88;;;8.14;88.50
69528;BME280;57136;51.986;4.468;2023-02-01T11:44:36;102057.53;;;8.38;88.94
69528;BME280;57136;51.986;4.468;2023-02-01T11:49:47;102055.41;;;8.26;88.58
69528;BME280;57136;51.986;4.468;2023-02-01T12:11:33;102026.91;;;8.02;89.25
69528;BME280;57136;51.986;4.468;2023-02-01T12:14:31;102037.91;;;7.94;89.52
69528;BME280;57136;51.986;4.468;2023-02-01T12:23:27;102033.50;;;7.92;91.19
69528;BME280;57136;51.986;4.468;2023-02-01T12:37:18;102028.06;;;8.36;88.26
69528;BME280;57136;51.986;4.468;2023-02-01T12:39:47;102012.09;;;8.25;89.58
69528;BME280;57136;51.986;4.468;2023-02-01T12:42:25;102033.72;;;8.50;88.73
69528;BME280;57136;51.986;4.468;2023-02-01T12:45:15;102025.91;;;8.24;89.56
69528;BME280;57136;51.986;4.468;2023-02-01T12:47:49;102026.00;;;8.27;89.74
69528;BME280;57136;51.986;4.468;2023-02-01T12:50:22;102043.38;;;8.28;90.42
69528;BME280;57136;51.986;4.468;2023-02-01T12:52:52;102005.47;;;8.07;90.40
69528;BME280;57136;51.986;4.468;2023-02-01T12:55:32;102032.25;;;8.32;90.21
69528;BME280;57136;51.986;4.468;2023-02-01T12:58:12;102046.41;;;8.42;88.79
69528;BME280;57136;51.986;4.468;2023-02-01T13:01:16;102025.16;;;8.27;88.15
69528;BME280;57136;51.986;4.468;2023-02-01T13:03:54;102031.16;;;8.25;89.08
69528;BME280;57136;51.986;4.468;2023-02-01T13:06:38;102026.22;;;8.33;88.87
69528;BME280;57136;51.986;4.468;2023-02-01T13:11:58;102029.97;;;8.42;89.20
69528;BME280;57136;51.986;4.468;2023-02-01T13:17:43;102012.69;;;8.69;88.51
69528;BME280;57136;51.986;4.468;2023-02-01T13:22:49;102002.59;;;8.51;88.56
69528;BME280;57136;51.986;4.468;2023-02-01T13:27:54;102021.16;;;8.38;89.34
69528;BME280;57136;51.986;4.468;2023-02-01T13:30:37;102018.44;;;8.33;90.91
69528;BME280;57136;51.986;4.468;2023-02-01T13:36:12;102026.31;;;8.36;91.91
69528;BME280;57136;51.986;4.468;2023-02-01T13:41:57;102015.88;;;8.09;92.48
69528;BME280;57136;51.986;4.468;2023-02-01T13:45:01;102021.41;;;8.18;92.22
69528;BME280;57136;51.986;4.468;2023-02-01T13:47:28;102011.94;;;8.20;92.44
69528;BME280;57136;51.986;4.468;2023-02-01T13:49:58;102026.13;;;8.30;92.28
69528;BME280;57136;51.986;4.468;2023-02-01T13:52:29;102028.19;;;8.40;91.63
69528;BME280;57136;51.986;4.468;2023-02-01T13:55:24;102017.16;;;8.20;92.46
69528;BME280;57136;51.986;4.468;2023-02-01T13:57:58;102034.13;;;8.36;92.22
69528;BME280;57136;51.986;4.468;2023-02-01T14:00:36;102021.94;;;8.34;92.49
69528;BME280;57136;51.986;4.468;2023-02-01T14:13:39;102012.88;;;8.22;93.61
69528;BME280;57136;51.986;4.468;2023-02-01T14:23:45;102020.00;;;8.28;93.81
69528;BME280;57136;51.986;4.468;2023-02-01T14:26:14;102013.94;;;8.28;94.29
69528;BME280;57136;51.986;4.468;2023-02-01T14:28:47;102020.00;;;8.28;94.27
69528;BME280;57136;51.986;4.468;2023-02-01T14:31:31;102022.75;;;8.33;94.15
69528;BME280;57136;51.986;4.468;2023-02-01T14:33:59;102008.41;;;8.18;94.59
69528;BME280;57136;51.986;4.468;2023-02-01T14:36:26;102028.72;;;8.30;94.53
69528;BME280;57136;51.986;4.468;2023-02-01T14:38:53;102021.97;;;8.35;94.27
69528;BME280;57136;51.986;4.468;2023-02-01T14:41:23;102026.44;;;8.39;94.65
69528;BME280;57136;51.986;4.468;2023-02-01T14:49:32;102030.78;;;8.40;94.89
69528;BME280;57136;51.986;4.468;2023-02-01T14:51:59;102017.28;;;8.25;95.21
69528;BME280;57136;51.986;4.468;2023-02-01T14:54:25;102028.72;;;8.30;95.53
69528;BME280;57136;51.986;4.468;2023-02-01T14:56:52;102027.28;;;8.40;95.30
69528;BME280;57136;51.986;4.468;2023-02-01T14:59:21;102021.13;;;8.36;95.77
69528;BME280;57136;51.986;4.468;2023-02-01T15:01:55;102020.41;;;8.40;95.91
69528;BME280;57136;51.986;4.468;2023-02-01T15:04:25;102026.28;;;8.35;96.27
69528;BME280;57136;51.986;4.468;2023-02-01T15:06:57;102026.44;;;8.39;96.37
69528;BME280;57136;51.986;4.468;2023-02-01T15:09:32;102028.00;;;8.34;96.41
69528;BME280;57136;51.986;4.468;2023-02-01T15:14:45;102029.72;;;8.34;96.24
69528;BME280;57136;51.986;4.468;2023-02-01T15:17:27;102021.09;;;8.35;96.51
69528;BME280;57136;51.986;4.468;2023-02-01T15:20:13;102029.50;;;8.53;95.84
69528;BME280;57136;51.986;4.468;2023-02-01T15:22:38;102019.94;;;8.52;95.47
69528;BME280;57136;51.986;4.468;2023-02-01T15:25:05;102039.84;;;8.52;95.79
69528;BME280;57136;51.986;4.468;2023-02-01T15:27:32;102034.31;;;8.43;96.06
69528;BME280;57136;51.986;4.468;2023-02-01T15:30:31;101997.84;;;8.39;95.04